Pampa, TX

1:49 PM CDT on March 28, 2017 (GMT -0500)
Perry Lefors

Weather History for KPPA - May, 2013

Change the Weather History Date:

Monday, May 27, 2013

  Actual Average Record
Temperature  
Mean Temperature 84 °F -  
Max Temperature 98 °F 80 °F 98 °F (2013)
Min Temperature 69 °F 54 °F 42 °F (1992)
Cooling Degree Days 18    
Growing Degree Days 34 (Base 50)    
Moisture  
Dew Point 44 °F    
Average Humidity 38    
Maximum Humidity 73    
Minimum Humidity 5    
Precipitation  
Precipitation 0.00 in - - ()
Sea Level Pressure  
Sea Level Pressure 29.79 in    
Wind  
Wind Speed 22 mph (SSW)    
Max Wind Speed 28 mph    
Max Gust Speed 43 mph    
Visibility 10 miles    
Events      
Averages and records for this station are not official NWS values.
T = Trace of Precipitation, MM = Missing Value Source: NWS Daily Summary

Daily Weather History Graph

Daily Weather History Graph

Search for Another Location

Airport or City:

Trip Planner

Search our weather history database for the weather conditions in past years. The results will help you decide how hot, cold, wet, or windy it might be!

Date:

Astronomy

May. 27, 2013 Rise Set
Actual Time 6:31 AM CDT 8:51 PM CDT
Civil Twilight 6:02 AM CDT 9:20 PM CDT
Nautical Twilight 5:26 AM CDT 9:56 PM CDT
Astronomical Twilight 4:47 AM CDT 10:35 PM CDT
Moon 11:34 PM CDT (5/27) 9:09 AM CDT (5/27)
Length of Visible Light 15h 18m
Length of Day
14h 19m
Waning Gibbous, 91% of the Moon is Illuminated
May 27
Waning Gibbous
May 31
Last Quarter
Jun 8
New
Jun 16
First Quarter
Jun 23
Full

Hourly Weather History & Observations

Time (CDT) Temp. Heat Index Dew Point Humidity Pressure Visibility Wind Dir Wind Speed Gust Speed Precip Events Conditions
12:15 AM 77.4 °F - 60.3 °F 55% 29.89 in 10.0 mi South 24.2 mph 32.2 mph N/A   Clear
12:35 AM 76.8 °F - 60.6 °F 57% 29.88 in 10.0 mi South 24.2 mph 29.9 mph N/A   Clear
12:55 AM 76.1 °F - 60.8 °F 59% 29.88 in 10.0 mi South 24.2 mph 29.9 mph N/A   Clear
1:15 AM 75.6 °F - 60.8 °F 60% 29.89 in 10.0 mi South 21.9 mph 28.8 mph N/A   Clear
1:35 AM 74.8 °F - 60.8 °F 62% 29.89 in 10.0 mi South 20.7 mph 28.8 mph N/A   Clear
1:55 AM 74.3 °F - 60.8 °F 63% 29.87 in 10.0 mi South 21.9 mph 27.6 mph N/A   Clear
2:15 AM 73.8 °F - 60.6 °F 63% 29.87 in 10.0 mi South 20.7 mph 26.5 mph N/A   Clear
2:35 AM 73.4 °F - 60.3 °F 63% 29.87 in 10.0 mi South 19.6 mph 26.5 mph N/A   Clear
2:55 AM 73.2 °F - 60.4 °F 64% 29.86 in 10.0 mi SSW 20.7 mph 27.6 mph N/A   Clear
3:15 AM 72.5 °F - 60.4 °F 66% 29.85 in 10.0 mi South 20.7 mph 26.5 mph N/A   Clear
3:35 AM 71.6 °F - 60.4 °F 68% 29.85 in 10.0 mi South 19.6 mph - N/A   Clear
3:55 AM 71.6 °F - 60.8 °F 69% 29.85 in 10.0 mi SSW 20.7 mph - N/A   Clear
4:15 AM 71.2 °F - 60.8 °F 69% 29.84 in 10.0 mi SSW 20.7 mph - N/A   Clear
4:35 AM 70.7 °F - 60.8 °F 71% 29.84 in 10.0 mi SSW 23.0 mph 26.5 mph N/A   Clear
4:55 AM 70.3 °F - 60.8 °F 72% 29.84 in 10.0 mi SSW 19.6 mph - N/A   Clear
5:15 AM 70.3 °F - 60.8 °F 72% 29.84 in 10.0 mi SSW 19.6 mph 25.3 mph N/A   Clear
5:35 AM 70.0 °F - 60.3 °F 71% 29.84 in 10.0 mi SSW 20.7 mph 27.6 mph N/A   Clear
5:55 AM 69.8 °F - 59.9 °F 71% 29.84 in 10.0 mi SSW 21.9 mph - N/A   Clear
6:15 AM 69.8 °F - 59.9 °F 71% 29.84 in 10.0 mi SSW 21.9 mph 27.6 mph N/A   Clear
6:35 AM 69.3 °F - 60.1 °F 72% 29.84 in 10.0 mi SSW 19.6 mph 25.3 mph N/A   Clear
6:55 AM 69.1 °F - 60.1 °F 73% 29.84 in 10.0 mi SSW 18.4 mph 24.2 mph N/A   Clear
7:15 AM 69.4 °F - 60.1 °F 72% 29.85 in 10.0 mi SSW 19.6 mph 24.2 mph N/A   Clear
7:35 AM 70.7 °F - 60.3 °F 69% 29.84 in 10.0 mi SSW 20.7 mph - N/A   Clear
7:55 AM 71.8 °F - 60.4 °F 67% 29.85 in 10.0 mi SSW 21.9 mph 26.5 mph N/A   Clear
8:15 AM 73.4 °F - 60.8 °F 65% 29.85 in 10.0 mi SW 18.4 mph 26.5 mph N/A   Clear
8:35 AM 74.3 °F - 60.4 °F 62% 29.84 in 10.0 mi SW 27.6 mph 33.4 mph N/A   Clear
8:55 AM 75.9 °F - 59.9 °F 57% 29.84 in 10.0 mi SW 26.5 mph 35.7 mph N/A   Clear
9:15 AM 77.5 °F - 59.5 °F 54% 29.84 in 10.0 mi SW 24.2 mph 31.1 mph N/A   Clear
9:35 AM 79.3 °F - 57.9 °F 48% 29.84 in 10.0 mi SW 23.0 mph 29.9 mph N/A   Clear
9:55 AM 81.7 °F 81.5 °F 57.2 °F 43% 29.84 in 10.0 mi SW 23.0 mph 28.8 mph N/A   Clear
10:15 AM 83.5 °F - 51.6 °F 33% 29.83 in 10.0 mi SW 21.9 mph 28.8 mph N/A   Clear
10:35 AM 86.0 °F - 48.9 °F 28% 29.82 in 10.0 mi SW 23.0 mph 28.8 mph N/A   Clear
10:55 AM 87.1 °F - 45.0 °F 23% 29.81 in 10.0 mi SW 21.9 mph 29.9 mph N/A   Clear
11:15 AM 88.9 °F - 44.4 °F 21% 29.81 in 10.0 mi SW 20.7 mph 26.5 mph N/A   Clear
11:35 AM 90.7 °F - 40.3 °F 17% 29.81 in 10.0 mi SW 19.6 mph 26.5 mph N/A   Clear
11:55 AM 91.6 °F - 39.4 °F 16% 29.81 in 10.0 mi WSW 20.7 mph 26.5 mph N/A   Clear
12:15 PM 93.2 °F - 32.7 °F 12% 29.80 in 10.0 mi WSW 21.9 mph 27.6 mph N/A   Clear
12:35 PM 94.6 °F - 26.8 °F 9% 29.80 in 10.0 mi WSW 21.9 mph 27.6 mph N/A   Clear
12:55 PM 95.0 °F - 28.2 °F 9% 29.79 in 10.0 mi WSW 21.9 mph 29.9 mph N/A   Clear
1:15 PM 95.4 °F - 29.5 °F 10% 29.79 in 10.0 mi WSW 21.9 mph 28.8 mph N/A   Clear
1:35 PM 95.5 °F - 30.2 °F 10% 29.78 in 10.0 mi SW 19.6 mph 29.9 mph N/A   Clear
1:55 PM 95.9 °F - 31.6 °F 10% 29.77 in 10.0 mi SW 20.7 mph 28.8 mph N/A   Clear
2:15 PM 95.0 °F - 28.0 °F 9% 29.76 in 10.0 mi SW 16.1 mph 32.2 mph N/A   Clear
2:35 PM 96.1 °F - 25.9 °F 8% 29.76 in 10.0 mi SW 25.3 mph 33.4 mph N/A   Clear
2:55 PM 95.9 °F - 24.1 °F 8% 29.76 in 10.0 mi SW 26.5 mph 33.4 mph N/A   Clear
3:15 PM 97.2 °F - 24.3 °F 7% 29.75 in 10.0 mi SW 27.6 mph 40.3 mph N/A   Clear
3:35 PM 97.7 °F - 21.9 °F 7% 29.74 in 10.0 mi WSW 23.0 mph 34.5 mph N/A   Clear
3:55 PM 98.2 °F - 19.6 °F 6% 29.73 in 10.0 mi SW 25.3 mph 42.6 mph N/A   Clear
4:15 PM 96.3 °F - 17.6 °F 6% 29.73 in 10.0 mi SW 26.5 mph 34.5 mph N/A   Clear
4:35 PM 95.7 °F - 15.8 °F 5% 29.73 in 10.0 mi WSW 26.5 mph 34.5 mph N/A   Clear
4:55 PM 93.7 °F - 12.2 °F 5% 29.73 in 10.0 mi WSW 20.7 mph 34.5 mph N/A   Clear
5:15 PM 93.6 °F - 14.4 °F 5% 29.73 in 10.0 mi SW 20.7 mph 29.9 mph N/A   Clear
5:35 PM 92.1 °F - 14.9 °F 6% 29.72 in 10.0 mi SW 20.7 mph 26.5 mph N/A   Clear
5:55 PM 93.0 °F - 18.0 °F 6% 29.72 in 10.0 mi SW 21.9 mph 26.5 mph N/A   Clear
6:15 PM 92.1 °F - 16.5 °F 6% 29.71 in 10.0 mi SW 23.0 mph 28.8 mph N/A   Clear
6:35 PM 91.4 °F - 14.2 °F 6% 29.70 in 10.0 mi WSW 19.6 mph 29.9 mph N/A   Clear
6:55 PM 90.7 °F - 11.7 °F 5% 29.70 in 10.0 mi West 21.9 mph 27.6 mph N/A   Clear
7:15 PM 89.6 °F - 13.5 °F 6% 29.71 in 10.0 mi West 17.3 mph 26.5 mph N/A   Clear
7:35 PM 87.8 °F - 14.7 °F 7% 29.71 in 10.0 mi WSW 11.5 mph - N/A   Clear
7:55 PM 85.3 °F - 16.9 °F 8% 29.71 in 10.0 mi SW 9.2 mph - N/A   Clear
8:35 PM 79.2 °F - 23.2 °F 13% 29.71 in 10.0 mi SSW 10.4 mph - N/A   Clear
8:55 PM 76.8 °F - 23.0 °F 14% 29.71 in 10.0 mi SSW 10.4 mph - N/A   Clear
9:15 PM 75.2 °F - 23.2 °F 14% 29.71 in 10.0 mi SW 10.4 mph - N/A   Clear
9:35 PM 69.8 °F - 27.1 °F 20% 29.73 in 10.0 mi South 16.1 mph - N/A   Clear
9:55 PM 78.6 °F - 49.8 °F 36% 29.73 in 10.0 mi South 16.1 mph - N/A   Clear
10:15 PM 79.7 °F - 59.7 °F 50% 29.73 in 10.0 mi South 20.7 mph 27.6 mph N/A   Clear
10:35 PM 79.0 °F - 61.2 °F 54% 29.74 in 10.0 mi South 20.7 mph 26.5 mph N/A   Clear
10:55 PM 78.1 °F - 61.7 °F 57% 29.74 in 10.0 mi South 20.7 mph 26.5 mph N/A   Clear
11:15 PM 77.9 °F - 62.2 °F 58% 29.75 in 10.0 mi South 20.7 mph 26.5 mph N/A   Clear
11:35 PM 77.0 °F - 62.6 °F 61% 29.75 in 10.0 mi South 23.0 mph 28.8 mph N/A   Clear
11:55 PM 76.1 °F - 62.8 °F 63% 29.75 in 10.0 mi South 19.6 mph 27.6 mph N/A   Clear